sensor_id;sensor_type;location;lat;lon;timestamp;pressure;altitude;pressure_sealevel;temperature;humidity
57114;BME280;42994;51.606;9.988;2023-03-26T00:02:02;98009.25;;;5.93;100.00
57114;BME280;42994;51.606;9.988;2023-03-26T00:04:28;98007.63;;;5.92;100.00
57114;BME280;42994;51.606;9.988;2023-03-26T00:06:58;98014.16;;;6.04;100.00
57114;BME280;42994;51.606;9.988;2023-03-26T00:09:24;98002.78;;;5.95;100.00
57114;BME280;42994;51.606;9.988;2023-03-26T00:11:51;98001.91;;;5.95;100.00
57114;BME280;42994;51.606;9.988;2023-03-26T00:14:18;98007.44;;;5.93;100.00
57114;BME280;42994;51.606;9.988;2023-03-26T00:16:44;98005.47;;;5.95;100.00
57114;BME280;42994;51.606;9.988;2023-03-26T00:19:12;98013.72;;;6.01;100.00
57114;BME280;42994;51.606;9.988;2023-03-26T00:21:39;97999.25;;;5.95;100.00
57114;BME280;42994;51.606;9.988;2023-03-26T00:24:08;98019.38;;;5.97;100.00
57114;BME280;42994;51.606;9.988;2023-03-26T00:26:36;98013.44;;;5.95;100.00
57114;BME280;42994;51.606;9.988;2023-03-26T00:29:05;98011.75;;;5.94;100.00
57114;BME280;42994;51.606;9.988;2023-03-26T00:31:34;98018.38;;;5.99;100.00
57114;BME280;42994;51.606;9.988;2023-03-26T00:34:04;98008.44;;;5.92;100.00
57114;BME280;42994;51.606;9.988;2023-03-26T00:36:32;98004.78;;;5.93;100.00
57114;BME280;42994;51.606;9.988;2023-03-26T00:39:02;98003.94;;;5.93;100.00
57114;BME280;42994;51.606;9.988;2023-03-26T00:41:30;98001.91;;;5.95;100.00
57114;BME280;42994;51.606;9.988;2023-03-26T00:43:58;97998.63;;;5.93;100.00
57114;BME280;42994;51.606;9.988;2023-03-26T00:46:26;97998.63;;;5.93;100.00
57114;BME280;42994;51.606;9.988;2023-03-26T00:48:53;98002.50;;;5.90;100.00
57114;BME280;42994;51.606;9.988;2023-03-26T00:51:23;98005.16;;;5.90;100.00
57114;BME280;42994;51.606;9.988;2023-03-26T00:53:51;98005.47;;;5.95;100.00
57114;BME280;42994;51.606;9.988;2023-03-26T00:56:18;98008.13;;;5.95;100.00
57114;BME280;42994;51.606;9.988;2023-03-26T00:58:45;97996.09;;;6.00;100.00
57114;BME280;42994;51.606;9.988;2023-03-26T01:01:14;98000.13;;;5.95;100.00
57114;BME280;42994;51.606;9.988;2023-03-26T01:03:43;97997.09;;;5.99;100.00
57114;BME280;42994;51.606;9.988;2023-03-26T01:06:13;98005.78;;;5.92;100.00
57114;BME280;42994;51.606;9.988;2023-03-26T01:08:45;97994.06;;;5.87;100.00
57114;BME280;42994;51.606;9.988;2023-03-26T01:11:16;97992.03;;;5.89;100.00
57114;BME280;42994;51.606;9.988;2023-03-26T01:13:46;97991.97;;;5.97;100.00
57114;BME280;42994;51.606;9.988;2023-03-26T01:16:20;97987.75;;;6.03;100.00
57114;BME280;42994;51.606;9.988;2023-03-26T01:18:48;97992.44;;;6.01;100.00
57114;BME280;42994;51.606;9.988;2023-03-26T01:21:19;97991.13;;;5.96;100.00
57114;BME280;42994;51.606;9.988;2023-03-26T01:23:58;97989.09;;;5.99;100.00
57114;BME280;42994;51.606;9.988;2023-03-26T01:26:36;97983.50;;;5.93;100.00
57114;BME280;42994;51.606;9.988;2023-03-26T01:29:07;97984.63;;;5.99;100.00
57114;BME280;42994;51.606;9.988;2023-03-26T01:31:42;97986.88;;;6.02;100.00
57114;BME280;42994;51.606;9.988;2023-03-26T01:34:18;97987.75;;;6.03;100.00
57114;BME280;42994;51.606;9.988;2023-03-26T01:36:54;97988.38;;;5.90;100.00
57114;BME280;42994;51.606;9.988;2023-03-26T01:39:29;97988.13;;;5.85;100.00
57114;BME280;42994;51.606;9.988;2023-03-26T01:42:01;97978.56;;;5.90;100.00
57114;BME280;42994;51.606;9.988;2023-03-26T01:44:32;97983.50;;;5.93;100.00
57114;BME280;42994;51.606;9.988;2023-03-26T01:47:00;97976.66;;;5.99;100.00
57114;BME280;42994;51.606;9.988;2023-03-26T01:49:28;97978.84;;;5.95;100.00
57114;BME280;42994;51.606;9.988;2023-03-26T01:51:56;97977.47;;;6.00;100.00
57114;BME280;42994;51.606;9.988;2023-03-26T01:54:27;97966.03;;;5.84;100.00
57114;BME280;42994;51.606;9.988;2023-03-26T01:57:02;97975.25;;;5.88;100.00
57114;BME280;42994;51.606;9.988;2023-03-26T01:59:46;97964.63;;;5.88;100.00
57114;BME280;42994;51.606;9.988;2023-03-26T02:02:23;97976.91;;;5.89;100.00
57114;BME280;42994;51.606;9.988;2023-03-26T02:04:54;97978.59;;;5.75;100.00
57114;BME280;42994;51.606;9.988;2023-03-26T02:07:23;97975.53;;;5.78;100.00
57114;BME280;42994;51.606;9.988;2023-03-26T02:09:56;97966.69;;;5.71;100.00
57114;BME280;42994;51.606;9.988;2023-03-26T02:12:24;97965.84;;;5.71;100.00
57114;BME280;42994;51.606;9.988;2023-03-26T02:14:52;97971.44;;;5.76;100.00
57114;BME280;42994;51.606;9.988;2023-03-26T02:17:19;97967.88;;;5.69;100.00
57114;BME280;42994;51.606;9.988;2023-03-26T02:19:48;97962.00;;;5.73;100.00
57114;BME280;42994;51.606;9.988;2023-03-26T02:22:16;97959.16;;;5.75;100.00
57114;BME280;42994;51.606;9.988;2023-03-26T02:24:44;97965.75;;;5.79;100.00
57114;BME280;42994;51.606;9.988;2023-03-26T02:27:13;97960.78;;;5.76;100.00
57114;BME280;42994;51.606;9.988;2023-03-26T02:29:43;97961.97;;;5.88;100.00
57114;BME280;42994;51.606;9.988;2023-03-26T02:32:11;97963.59;;;5.89;100.00
57114;BME280;42994;51.606;9.988;2023-03-26T02:34:38;97966.66;;;5.86;100.00
57114;BME280;42994;51.606;9.988;2023-03-26T02:37:05;97962.97;;;5.87;100.00
57114;BME280;42994;51.606;9.988;2023-03-26T02:39:33;97962.06;;;5.80;100.00
57114;BME280;42994;51.606;9.988;2023-03-26T02:42:07;97962.06;;;5.80;100.00
57114;BME280;42994;51.606;9.988;2023-03-26T02:44:42;97951.69;;;5.85;100.00
57114;BME280;42994;51.606;9.988;2023-03-26T02:47:18;97959.94;;;5.90;100.00
57114;BME280;42994;51.606;9.988;2023-03-26T02:49:50;97948.22;;;5.85;100.00
57114;BME280;42994;51.606;9.988;2023-03-26T02:52:23;97955.25;;;5.92;100.00
57114;BME280;42994;51.606;9.988;2023-03-26T02:54:52;97962.16;;;5.87;100.00
57114;BME280;42994;51.606;9.988;2023-03-26T02:57:21;97951.38;;;5.95;100.00
57114;BME280;42994;51.606;9.988;2023-03-26T02:59:52;97963.63;;;6.04;100.00
57114;BME280;42994;51.606;9.988;2023-03-26T03:02:34;97958.41;;;5.96;100.00
57114;BME280;42994;51.606;9.988;2023-03-26T03:05:29;97955.19;;;6.01;100.00
57114;BME280;42994;51.606;9.988;2023-03-26T03:08:14;97945.63;;;6.06;100.00
57114;BME280;42994;51.606;9.988;2023-03-26T03:10:57;97946.81;;;6.04;100.00
57114;BME280;42994;51.606;9.988;2023-03-26T03:13:43;97944.34;;;6.02;100.00
57114;BME280;42994;51.606;9.988;2023-03-26T03:16:15;97944.44;;;5.94;100.00
57114;BME280;42994;51.606;9.988;2023-03-26T03:18:42;97934.78;;;5.93;100.00
57114;BME280;42994;51.606;9.988;2023-03-26T03:21:09;97933.78;;;5.94;100.00
57114;BME280;42994;51.606;9.988;2023-03-26T03:23:36;97937.25;;;5.94;100.00
57114;BME280;42994;51.606;9.988;2023-03-26T03:26:12;97929.28;;;5.94;100.00
57114;BME280;42994;51.606;9.988;2023-03-26T03:28:41;97939.78;;;5.96;100.00
57114;BME280;42994;51.606;9.988;2023-03-26T03:31:11;97948.38;;;5.98;100.00
57114;BME280;42994;51.606;9.988;2023-03-26T03:33:39;97946.34;;;6.00;100.00
57114;BME280;42994;51.606;9.988;2023-03-26T03:36:08;97939.22;;;6.01;100.00
57114;BME280;42994;51.606;9.988;2023-03-26T03:38:37;97948.84;;;6.02;100.00
57114;BME280;42994;51.606;9.988;2023-03-26T03:41:04;97940.22;;;6.00;100.00
57114;BME280;42994;51.606;9.988;2023-03-26T03:43:34;97934.72;;;6.01;100.00
57114;BME280;42994;51.606;9.988;2023-03-26T03:46:08;97934.09;;;5.99;100.00
57114;BME280;42994;51.606;9.988;2023-03-26T03:48:39;97939.41;;;5.99;100.00
57114;BME280;42994;51.606;9.988;2023-03-26T03:51:08;97935.91;;;5.99;100.00
57114;BME280;42994;51.606;9.988;2023-03-26T03:53:44;97950.22;;;5.97;100.00
57114;BME280;42994;51.606;9.988;2023-03-26T03:56:13;97931.94;;;5.94;100.00
57114;BME280;42994;51.606;9.988;2023-03-26T03:59:04;97933.53;;;5.89;100.00
57114;BME280;42994;51.606;9.988;2023-03-26T04:01:34;97926.31;;;5.83;100.00
57114;BME280;42994;51.606;9.988;2023-03-26T04:04:07;97931.81;;;5.81;100.00
57114;BME280;42994;51.606;9.988;2023-03-26T04:07:00;97930.34;;;5.78;100.00
57114;BME280;42994;51.606;9.988;2023-03-26T04:09:34;97931.81;;;5.81;100.00
57114;BME280;42994;51.606;9.988;2023-03-26T04:12:08;97933.00;;;5.78;100.00
57114;BME280;42994;51.606;9.988;2023-03-26T04:14:41;97923.38;;;5.77;100.00
57114;BME280;42994;51.606;9.988;2023-03-26T04:17:13;97927.03;;;5.76;100.00
57114;BME280;42994;51.606;9.988;2023-03-26T04:19:43;97925.69;;;5.81;100.00
57114;BME280;42994;51.606;9.988;2023-03-26T04:22:11;97932.34;;;5.76;100.00
57114;BME280;42994;51.606;9.988;2023-03-26T04:24:49;97926.84;;;5.78;100.00
57114;BME280;42994;51.606;9.988;2023-03-26T04:27:29;97909.06;;;5.78;100.00
57114;BME280;42994;51.606;9.988;2023-03-26T04:30:16;97907.16;;;5.72;100.00
57114;BME280;42994;51.606;9.988;2023-03-26T04:32:45;97914.25;;;5.65;100.00
57114;BME280;42994;51.606;9.988;2023-03-26T04:35:16;97907.09;;;5.66;100.00
57114;BME280;42994;51.606;9.988;2023-03-26T04:37:48;97911.31;;;5.60;100.00
57114;BME280;42994;51.606;9.988;2023-03-26T04:40:24;97892.72;;;5.60;100.00
57114;BME280;42994;51.606;9.988;2023-03-26T04:43:15;97901.25;;;5.55;100.00
57114;BME280;42994;51.606;9.988;2023-03-26T04:46:01;97885.94;;;5.57;100.00
57114;BME280;42994;51.606;9.988;2023-03-26T04:48:33;97889.69;;;5.63;100.00
57114;BME280;42994;51.606;9.988;2023-03-26T04:51:01;97888.03;;;5.62;100.00
57114;BME280;42994;51.606;9.988;2023-03-26T04:53:27;97886.66;;;5.66;100.00
57114;BME280;42994;51.606;9.988;2023-03-26T04:56:07;97882.47;;;5.57;100.00
57114;BME280;42994;51.606;9.988;2023-03-26T04:59:02;97882.28;;;5.58;100.00
57114;BME280;42994;51.606;9.988;2023-03-26T05:01:35;97884.50;;;5.55;100.00
57114;BME280;42994;51.606;9.988;2023-03-26T05:04:05;97880.19;;;5.54;100.00
57114;BME280;42994;51.606;9.988;2023-03-26T05:06:33;97880.63;;;5.57;100.00
57114;BME280;42994;51.606;9.988;2023-03-26T05:09:08;97875.84;;;5.53;100.00
57114;BME280;42994;51.606;9.988;2023-03-26T05:12:02;97875.03;;;5.52;100.00
57114;BME280;42994;51.606;9.988;2023-03-26T05:14:37;97873.66;;;5.56;100.00
57114;BME280;42994;51.606;9.988;2023-03-26T05:17:13;97868.09;;;5.51;100.00
57114;BME280;42994;51.606;9.988;2023-03-26T05:19:44;97859.47;;;5.49;100.00
57114;BME280;42994;51.606;9.988;2023-03-26T05:22:14;97852.88;;;5.45;100.00
57114;BME280;42994;51.606;9.988;2023-03-26T05:25:00;97849.28;;;5.53;100.00
57114;BME280;42994;51.606;9.988;2023-03-26T05:27:27;97852.78;;;5.53;100.00
57114;BME280;42994;51.606;9.988;2023-03-26T05:29:59;97857.91;;;5.55;100.00
57114;BME280;42994;51.606;9.988;2023-03-26T05:32:26;97842.25;;;5.45;100.00
57114;BME280;42994;51.606;9.988;2023-03-26T05:34:53;97847.97;;;5.42;100.00
57114;BME280;42994;51.606;9.988;2023-03-26T05:37:21;97840.53;;;5.37;100.00
57114;BME280;42994;51.606;9.988;2023-03-26T05:40:00;97832.38;;;5.39;100.00
57114;BME280;42994;51.606;9.988;2023-03-26T05:42:51;97838.59;;;5.46;100.00
57114;BME280;42994;51.606;9.988;2023-03-26T05:45:46;97829.59;;;5.47;100.00
57114;BME280;42994;51.606;9.988;2023-03-26T05:48:33;97831.25;;;5.48;100.00
57114;BME280;42994;51.606;9.988;2023-03-26T05:50:59;97827.38;;;5.51;100.00
57114;BME280;42994;51.606;9.988;2023-03-26T05:53:30;97828.84;;;5.53;100.00
57114;BME280;42994;51.606;9.988;2023-03-26T05:56:09;97828.47;;;5.56;100.00
57114;BME280;42994;51.606;9.988;2023-03-26T05:58:54;97824.22;;;5.62;100.00
57114;BME280;42994;51.606;9.988;2023-03-26T06:01:47;97830.66;;;5.68;100.00
57114;BME280;42994;51.606;9.988;2023-03-26T06:04:34;97822.28;;;5.71;100.00
57114;BME280;42994;51.606;9.988;2023-03-26T06:07:43;97818.44;;;5.73;100.00
57114;BME280;42994;51.606;9.988;2023-03-26T06:10:17;97817.22;;;5.76;100.00
57114;BME280;42994;51.606;9.988;2023-03-26T06:12:43;97826.63;;;5.78;100.00
57114;BME280;42994;51.606;9.988;2023-03-26T06:15:11;97818.91;;;5.84;100.00
57114;BME280;42994;51.606;9.988;2023-03-26T06:17:44;97805.25;;;5.87;100.00
57114;BME280;42994;51.606;9.988;2023-03-26T06:20:30;97818.16;;;5.90;100.00
57114;BME280;42994;51.606;9.988;2023-03-26T06:22:56;97812.84;;;5.90;100.00
57114;BME280;42994;51.606;9.988;2023-03-26T06:25:42;97816.75;;;5.94;100.00
57114;BME280;42994;51.606;9.988;2023-03-26T06:28:28;97809.44;;;5.96;100.00
57114;BME280;42994;51.606;9.988;2023-03-26T06:31:24;97809.44;;;5.96;100.00
57114;BME280;42994;51.606;9.988;2023-03-26T06:33:58;97798.25;;;6.01;100.00
57114;BME280;42994;51.606;9.988;2023-03-26T06:36:25;97800.69;;;6.02;100.00
57114;BME280;42994;51.606;9.988;2023-03-26T06:38:52;97802.16;;;6.05;100.00
57114;BME280;42994;51.606;9.988;2023-03-26T06:41:20;97804.44;;;6.08;100.00
57114;BME280;42994;51.606;9.988;2023-03-26T06:43:59;97803.59;;;6.07;100.00
57114;BME280;42994;51.606;9.988;2023-03-26T06:46:44;97807.13;;;6.14;100.00
57114;BME280;42994;51.606;9.988;2023-03-26T06:49:30;97801.19;;;6.12;100.00
57114;BME280;42994;51.606;9.988;2023-03-26T06:52:15;97804.91;;;6.18;100.00
57114;BME280;42994;51.606;9.988;2023-03-26T06:54:57;97805.72;;;6.19;100.00
57114;BME280;42994;51.606;9.988;2023-03-26T06:57:48;97807.81;;;6.23;100.00
57114;BME280;42994;51.606;9.988;2023-03-26T07:00:34;97819.09;;;6.25;100.00
57114;BME280;42994;51.606;9.988;2023-03-26T07:03:20;97811.28;;;6.24;100.00
57114;BME280;42994;51.606;9.988;2023-03-26T07:06:06;97810.31;;;6.31;100.00
57114;BME280;42994;51.606;9.988;2023-03-26T07:08:51;97812.13;;;6.24;100.00
57114;BME280;42994;51.606;9.988;2023-03-26T07:11:38;97791.84;;;6.23;100.00
57114;BME280;42994;51.606;9.988;2023-03-26T07:14:44;97796.38;;;6.29;100.00
57114;BME280;42994;51.606;9.988;2023-03-26T07:17:30;97796.00;;;6.32;100.00
57114;BME280;42994;51.606;9.988;2023-03-26T07:20:01;97789.69;;;6.33;100.00
57114;BME280;42994;51.606;9.988;2023-03-26T07:22:29;97786.59;;;6.37;100.00
57114;BME280;42994;51.606;9.988;2023-03-26T07:25:06;97791.16;;;6.43;100.00
57114;BME280;42994;51.606;9.988;2023-03-26T07:28:06;97774.97;;;6.44;100.00
57114;BME280;42994;51.606;9.988;2023-03-26T07:31:23;97769.09;;;6.49;100.00
57114;BME280;42994;51.606;9.988;2023-03-26T07:34:32;97769.31;;;6.54;100.00
57114;BME280;42994;51.606;9.988;2023-03-26T07:37:36;97768.72;;;6.59;100.00
57114;BME280;42994;51.606;9.988;2023-03-26T07:40:38;97763.63;;;6.64;100.00
57114;BME280;42994;51.606;9.988;2023-03-26T07:43:42;97758.50;;;6.62;100.00
57114;BME280;42994;51.606;9.988;2023-03-26T07:46:33;97758.13;;;6.65;100.00
57114;BME280;42994;51.606;9.988;2023-03-26T07:49:24;97753.22;;;6.69;100.00
57114;BME280;42994;51.606;9.988;2023-03-26T07:52:14;97749.13;;;6.66;100.00
57114;BME280;42994;51.606;9.988;2023-03-26T07:55:05;97743.56;;;6.68;100.00
57114;BME280;42994;51.606;9.988;2023-03-26T07:58:20;97747.50;;;6.72;100.00
57114;BME280;42994;51.606;9.988;2023-03-26T08:01:13;97751.22;;;6.78;100.00
57114;BME280;42994;51.606;9.988;2023-03-26T08:03:54;97757.53;;;6.77;100.00
57114;BME280;42994;51.606;9.988;2023-03-26T08:06:47;97746.75;;;6.85;100.00
57114;BME280;42994;51.606;9.988;2023-03-26T08:09:38;97747.75;;;6.84;100.00
57114;BME280;42994;51.606;9.988;2023-03-26T08:12:40;97748.38;;;6.86;100.00
57114;BME280;42994;51.606;9.988;2023-03-26T08:15:17;97747.16;;;6.95;100.00
57114;BME280;42994;51.606;9.988;2023-03-26T08:17:51;97749.06;;;7.01;100.00
57114;BME280;42994;51.606;9.988;2023-03-26T08:20:31;97747.66;;;7.12;100.00
57114;BME280;42994;51.606;9.988;2023-03-26T08:23:05;97746.81;;;7.11;100.00
57114;BME280;42994;51.606;9.988;2023-03-26T08:25:40;97750.94;;;7.21;100.00
57114;BME280;42994;51.606;9.988;2023-03-26T08:28:19;97741.53;;;7.25;100.00
57114;BME280;42994;51.606;9.988;2023-03-26T08:30:51;97758.16;;;7.27;100.00
57114;BME280;42994;51.606;9.988;2023-03-26T08:33:20;97752.22;;;7.38;100.00
57114;BME280;42994;51.606;9.988;2023-03-26T08:35:48;97753.06;;;7.45;100.00
57114;BME280;42994;51.606;9.988;2023-03-26T08:38:17;97762.50;;;7.55;100.00
57114;BME280;42994;51.606;9.988;2023-03-26T08:46:59;97772.78;;;7.78;100.00
57114;BME280;42994;51.606;9.988;2023-03-26T08:50:02;97760.47;;;7.83;100.00
57114;BME280;42994;51.606;9.988;2023-03-26T08:52:37;97759.88;;;7.81;100.00
57114;BME280;42994;51.606;9.988;2023-03-26T08:55:30;97758.81;;;7.82;100.00
57114;BME280;42994;51.606;9.988;2023-03-26T08:58:17;97757.59;;;7.92;100.00
57114;BME280;42994;51.606;9.988;2023-03-26T09:01:27;97745.50;;;8.02;100.00
57114;BME280;42994;51.606;9.988;2023-03-26T09:04:22;97743.44;;;8.11;100.00
57114;BME280;42994;51.606;9.988;2023-03-26T09:07:21;97746.72;;;8.00;100.00
57114;BME280;42994;51.606;9.988;2023-03-26T09:10:16;97736.03;;;8.06;100.00
57114;BME280;42994;51.606;9.988;2023-03-26T09:19:13;97732.97;;;8.16;100.00
57114;BME280;42994;51.606;9.988;2023-03-26T09:22:22;97727.78;;;8.35;100.00
57114;BME280;42994;51.606;9.988;2023-03-26T09:25:16;97728.41;;;8.30;100.00
57114;BME280;42994;51.606;9.988;2023-03-26T09:28:00;97724.72;;;8.31;100.00
57114;BME280;42994;51.606;9.988;2023-03-26T09:30:41;97723.69;;;8.45;100.00
57114;BME280;42994;51.606;9.988;2023-03-26T09:33:30;97721.41;;;8.49;100.00
57114;BME280;42994;51.606;9.988;2023-03-26T09:36:17;97725.09;;;8.41;100.00
57114;BME280;42994;51.606;9.988;2023-03-26T09:38:50;97726.31;;;8.52;100.00
57114;BME280;42994;51.606;9.988;2023-03-26T09:41:29;97724.28;;;8.54;100.00
57114;BME280;42994;51.606;9.988;2023-03-26T09:44:22;97724.03;;;8.62;100.00
57114;BME280;42994;51.606;9.988;2023-03-26T09:47:04;97720.03;;;8.85;100.00
57114;BME280;42994;51.606;9.988;2023-03-26T09:49:46;97726.84;;;8.74;100.00
57114;BME280;42994;51.606;9.988;2023-03-26T09:52:40;97728.44;;;8.89;100.00
57114;BME280;42994;51.606;9.988;2023-03-26T09:55:35;97719.94;;;9.05;100.00
57114;BME280;42994;51.606;9.988;2023-03-26T09:58:22;97724.28;;;9.06;100.00
57114;BME280;42994;51.606;9.988;2023-03-26T10:00:56;97724.84;;;9.15;100.00
57114;BME280;42994;51.606;9.988;2023-03-26T10:03:37;97720.88;;;9.24;100.00
57114;BME280;42994;51.606;9.988;2023-03-26T10:06:29;97718.00;;;9.26;100.00
57114;BME280;42994;51.606;9.988;2023-03-26T10:09:21;97710.22;;;9.17;100.00
57114;BME280;42994;51.606;9.988;2023-03-26T10:12:00;97714.94;;;9.22;100.00
57114;BME280;42994;51.606;9.988;2023-03-26T10:14:36;97714.38;;;9.07;100.00
57114;BME280;42994;51.606;9.988;2023-03-26T10:17:30;97720.94;;;9.11;100.00
57114;BME280;42994;51.606;9.988;2023-03-26T10:20:18;97710.38;;;9.29;100.00
57114;BME280;42994;51.606;9.988;2023-03-26T10:22:59;97704.94;;;9.42;100.00
57114;BME280;42994;51.606;9.988;2023-03-26T10:25:42;97710.59;;;9.28;100.00
57114;BME280;42994;51.606;9.988;2023-03-26T10:28:24;97712.56;;;9.39;100.00
57114;BME280;42994;51.606;9.988;2023-03-26T10:31:22;97714.84;;;9.35;100.00
57114;BME280;42994;51.606;9.988;2023-03-26T10:33:58;97703.72;;;9.38;100.00
57114;BME280;42994;51.606;9.988;2023-03-26T10:36:30;97703.66;;;9.45;100.00
57114;BME280;42994;51.606;9.988;2023-03-26T10:39:07;97704.41;;;9.59;100.00
57114;BME280;42994;51.606;9.988;2023-03-26T10:41:43;97701.28;;;9.62;100.00
57114;BME280;42994;51.606;9.988;2023-03-26T10:44:29;97700.66;;;9.60;100.00
57114;BME280;42994;51.606;9.988;2023-03-26T10:47:23;97701.97;;;9.51;100.00
57114;BME280;42994;51.606;9.988;2023-03-26T10:50:27;97699.47;;;9.56;100.00
57114;BME280;42994;51.606;9.988;2023-03-26T10:53:01;97702.44;;;9.48;100.00
57114;BME280;42994;51.606;9.988;2023-03-26T10:55:33;97698.84;;;9.60;100.00
57114;BME280;42994;51.606;9.988;2023-03-26T10:58:07;97701.44;;;9.67;100.00
57114;BME280;42994;51.606;9.988;2023-03-26T11:00:44;97701.44;;;9.67;100.00
57114;BME280;42994;51.606;9.988;2023-03-26T11:03:31;97698.38;;;9.38;100.00
57114;BME280;42994;51.606;9.988;2023-03-26T11:06:10;97698.13;;;9.15;100.00
57114;BME280;42994;51.606;9.988;2023-03-26T11:08:42;97698.56;;;9.05;100.00
57114;BME280;42994;51.606;9.988;2023-03-26T11:11:19;97698.72;;;9.17;100.00
57114;BME280;42994;51.606;9.988;2023-03-26T11:13:55;97692.97;;;9.13;100.00
57114;BME280;42994;51.606;9.988;2023-03-26T11:16:28;97689.25;;;9.14;100.00
57114;BME280;42994;51.606;9.988;2023-03-26T11:19:02;97684.56;;;9.10;100.00
57114;BME280;42994;51.606;9.988;2023-03-26T11:21:35;97692.38;;;9.11;100.00
57114;BME280;42994;51.606;9.988;2023-03-26T11:24:33;97690.22;;;9.27;100.00
57114;BME280;42994;51.606;9.988;2023-03-26T11:27:06;97684.69;;;9.21;100.00
57114;BME280;42994;51.606;9.988;2023-03-26T11:29:46;97685.56;;;9.15;100.00
57114;BME280;42994;51.606;9.988;2023-03-26T11:32:17;97687.81;;;9.18;100.00
57114;BME280;42994;51.606;9.988;2023-03-26T11:34:55;97683.63;;;9.29;100.00
57114;BME280;42994;51.606;9.988;2023-03-26T11:37:28;97683.97;;;9.08;100.00
57114;BME280;42994;51.606;9.988;2023-03-26T11:40:02;97685.47;;;8.90;100.00
57114;BME280;42994;51.606;9.988;2023-03-26T11:42:31;97681.75;;;8.98;100.00
57114;BME280;42994;51.606;9.988;2023-03-26T11:44:59;97680.44;;;8.75;100.00
57114;BME280;42994;51.606;9.988;2023-03-26T11:47:31;97684.16;;;8.68;100.00
57114;BME280;42994;51.606;9.988;2023-03-26T11:50:02;97689.97;;;8.51;100.00
57114;BME280;42994;51.606;9.988;2023-03-26T11:52:29;97697.41;;;8.42;100.00
57114;BME280;42994;51.606;9.988;2023-03-26T11:54:56;97695.34;;;8.24;100.00
57114;BME280;42994;51.606;9.988;2023-03-26T11:57:26;97696.81;;;8.20;100.00
57114;BME280;42994;51.606;9.988;2023-03-26T11:59:57;97693.91;;;8.28;100.00
57114;BME280;42994;51.606;9.988;2023-03-26T12:02:39;97697.63;;;8.27;100.00
57114;BME280;42994;51.606;9.988;2023-03-26T12:05:16;97688.81;;;8.20;100.00
57114;BME280;42994;51.606;9.988;2023-03-26T12:07:46;97690.66;;;8.20;100.00
57114;BME280;42994;51.606;9.988;2023-03-26T12:10:25;97693.56;;;8.05;100.00
57114;BME280;42994;51.606;9.988;2023-03-26T12:12:55;97681.63;;;8.14;100.00
57114;BME280;42994;51.606;9.988;2023-03-26T12:15:23;97692.75;;;7.91;100.00
57114;BME280;42994;51.606;9.988;2023-03-26T12:17:52;97689.88;;;7.93;100.00
57114;BME280;42994;51.606;9.988;2023-03-26T12:20:34;97688.47;;;7.63;100.00
57114;BME280;42994;51.606;9.988;2023-03-26T12:23:05;97687.41;;;7.84;100.00
57114;BME280;42994;51.606;9.988;2023-03-26T12:25:34;97676.75;;;7.78;100.00
57114;BME280;42994;51.606;9.988;2023-03-26T12:28:03;97672.22;;;7.72;100.00
57114;BME280;42994;51.606;9.988;2023-03-26T12:30:31;97676.97;;;7.69;100.00
57114;BME280;42994;51.606;9.988;2023-03-26T12:33:00;97675.31;;;7.88;100.00
57114;BME280;42994;51.606;9.988;2023-03-26T12:35:30;97673.66;;;7.81;100.00
57114;BME280;42994;51.606;9.988;2023-03-26T12:41:04;97664.66;;;7.68;100.00
57114;BME280;42994;51.606;9.988;2023-03-26T12:43:38;97659.91;;;7.91;100.00
57114;BME280;42994;51.606;9.988;2023-03-26T12:46:22;97664.66;;;7.75;100.00
57114;BME280;42994;51.606;9.988;2023-03-26T12:48:50;97660.53;;;7.93;100.00
57114;BME280;42994;51.606;9.988;2023-03-26T12:51:33;97664.44;;;7.83;100.00
57114;BME280;42994;51.606;9.988;2023-03-26T12:54:26;97659.09;;;7.83;100.00
57114;BME280;42994;51.606;9.988;2023-03-26T12:57:10;97658.69;;;7.80;100.00
57114;BME280;42994;51.606;9.988;2023-03-26T12:59:55;97658.69;;;7.80;100.00
57114;BME280;42994;51.606;9.988;2023-03-26T13:02:44;97652.94;;;7.83;100.00
57114;BME280;42994;51.606;9.988;2023-03-26T13:05:29;97652.53;;;7.66;100.00
57114;BME280;42994;51.606;9.988;2023-03-26T13:08:17;97651.31;;;7.62;100.00
57114;BME280;42994;51.606;9.988;2023-03-26T13:10:53;97655.03;;;7.54;100.00
57114;BME280;42994;51.606;9.988;2023-03-26T13:16:29;97640.44;;;7.70;100.00
57114;BME280;42994;51.606;9.988;2023-03-26T13:19:00;97649.69;;;7.74;100.00
57114;BME280;42994;51.606;9.988;2023-03-26T13:21:40;97636.31;;;7.81;100.00
57114;BME280;42994;51.606;9.988;2023-03-26T13:24:21;97636.31;;;7.81;100.00
57114;BME280;42994;51.606;9.988;2023-03-26T13:27:01;97626.69;;;7.80;100.00
57114;BME280;42994;51.606;9.988;2023-03-26T13:29:37;97637.75;;;7.83;100.00
57114;BME280;42994;51.606;9.988;2023-03-26T13:32:13;97626.69;;;7.73;100.00
57114;BME280;42994;51.606;9.988;2023-03-26T13:34:56;97621.19;;;7.55;100.00
57114;BME280;42994;51.606;9.988;2023-03-26T13:37:33;97623.63;;;7.69;100.00
57114;BME280;42994;51.606;9.988;2023-03-26T13:40:14;97620.94;;;7.76;100.00
57114;BME280;42994;51.606;9.988;2023-03-26T13:42:51;97621.56;;;7.78;100.00
57114;BME280;42994;51.606;9.988;2023-03-26T13:45:36;97615.38;;;7.84;100.00
57114;BME280;42994;51.606;9.988;2023-03-26T13:48:10;97612.34;;;7.74;100.00
57114;BME280;42994;51.606;9.988;2023-03-26T13:50:41;97609.25;;;7.77;100.00
57114;BME280;42994;51.606;9.988;2023-03-26T13:53:13;97608.22;;;7.78;100.00
57114;BME280;42994;51.606;9.988;2023-03-26T13:55:43;97613.34;;;7.80;100.00
57114;BME280;42994;51.606;9.988;2023-03-26T13:58:15;97602.47;;;7.75;100.00
57114;BME280;42994;51.606;9.988;2023-03-26T14:00:51;97610.47;;;7.75;100.00
57114;BME280;42994;51.606;9.988;2023-03-26T14:03:25;97608.84;;;7.80;100.00
57114;BME280;42994;51.606;9.988;2023-03-26T14:05:55;97605.31;;;7.86;100.00
57114;BME280;42994;51.606;9.988;2023-03-26T14:08:27;97606.38;;;7.85;100.00
57114;BME280;42994;51.606;9.988;2023-03-26T14:11:02;97603.28;;;7.88;100.00
57114;BME280;42994;51.606;9.988;2023-03-26T14:13:35;97604.06;;;7.96;100.00